createdAt,value
2017-09-11T00:01:39.910Z,12.70
2017-09-11T00:04:07.429Z,12.70
2017-09-11T00:06:35.701Z,12.70
2017-09-11T00:09:03.603Z,12.70
2017-09-11T00:11:31.144Z,12.60
2017-09-11T00:13:58.759Z,12.60
2017-09-11T00:16:26.267Z,12.60
2017-09-11T00:18:54.530Z,12.60
2017-09-11T00:21:23.621Z,12.60
2017-09-11T00:26:20.884Z,12.60
2017-09-11T00:28:48.383Z,12.70
2017-09-11T00:31:16.683Z,12.60
2017-09-11T00:33:44.177Z,12.50
2017-09-11T00:36:11.821Z,12.50
2017-09-11T00:38:39.322Z,12.40
2017-09-11T00:41:07.607Z,12.40
2017-09-11T00:43:35.211Z,12.30
2017-09-11T00:46:04.251Z,12.30
2017-09-11T00:53:29.490Z,12.40
2017-09-11T00:55:58.618Z,12.40
2017-09-11T00:58:26.703Z,12.40
2017-09-11T01:00:54.275Z,12.40
2017-09-11T01:03:21.799Z,12.30
2017-09-11T01:05:49.459Z,12.20
2017-09-11T01:08:16.959Z,12.20
2017-09-11T01:10:44.581Z,12.20
2017-09-11T01:13:12.230Z,12.20
2017-09-11T01:15:40.559Z,12.20
2017-09-11T01:18:08.070Z,12.20
2017-09-11T01:20:35.594Z,12.20
2017-09-11T01:23:03.224Z,12.20
2017-09-11T01:25:30.740Z,12.10
2017-09-11T01:27:58.622Z,12.20
2017-09-11T01:30:26.183Z,12.20
2017-09-11T01:32:53.686Z,12.20
2017-09-11T01:35:21.209Z,12.10
2017-09-11T01:37:48.810Z,12.10
2017-09-11T01:40:16.371Z,12.10
2017-09-11T01:42:43.885Z,12.20
2017-09-11T01:45:11.586Z,12.10
2017-09-11T01:47:39.086Z,12.20
2017-09-11T01:50:06.623Z,12.10
2017-09-11T01:52:34.127Z,12.10
2017-09-11T01:55:01.828Z,12.00
2017-09-11T01:57:29.470Z,11.90
2017-09-11T01:59:57.131Z,11.90
2017-09-11T02:02:25.437Z,12.00
2017-09-11T02:04:52.938Z,12.00
2017-09-11T02:09:50.303Z,11.90
2017-09-11T02:12:18.202Z,11.90
2017-09-11T02:14:45.695Z,11.90
2017-09-11T02:17:13.186Z,12.00
2017-09-11T02:19:40.778Z,12.00
2017-09-11T02:22:09.123Z,12.00
2017-09-11T02:24:37.223Z,12.10
2017-09-11T02:27:04.715Z,12.10
2017-09-11T02:29:33.127Z,12.10
2017-09-11T02:32:01.058Z,12.10
2017-09-11T02:34:29.327Z,12.10
2017-09-11T02:36:57.336Z,12.10
2017-09-11T02:39:24.830Z,12.20
2017-09-11T02:41:53.518Z,12.10
2017-09-11T02:44:21.030Z,12.00
2017-09-11T02:46:48.595Z,12.00
2017-09-11T02:49:16.240Z,12.00
2017-09-11T02:51:43.750Z,12.00
2017-09-11T02:54:12.114Z,12.00
2017-09-11T02:56:39.723Z,12.00
2017-09-11T03:01:37.834Z,12.00
2017-09-11T03:04:05.428Z,12.00
2017-09-11T03:06:33.334Z,12.00
2017-09-11T03:09:01.000Z,12.00
2017-09-11T03:11:28.520Z,11.90
2017-09-11T03:13:56.919Z,11.90
2017-09-11T03:16:24.535Z,11.90
2017-09-11T03:18:52.036Z,11.90
2017-09-11T03:21:19.691Z,11.90
2017-09-11T03:23:47.967Z,11.90
2017-09-11T03:26:15.603Z,11.80
2017-09-11T03:28:43.116Z,11.80
2017-09-11T03:31:11.983Z,11.80
2017-09-11T03:33:40.612Z,11.80
2017-09-11T03:36:08.144Z,11.80
2017-09-11T03:38:36.798Z,11.80
2017-09-11T03:41:04.708Z,11.80
2017-09-11T03:43:32.969Z,11.80
2017-09-11T03:46:00.575Z,11.80
2017-09-11T03:48:28.092Z,11.70
2017-09-11T03:50:55.691Z,11.80
2017-09-11T03:53:23.347Z,11.80
2017-09-11T03:55:50.868Z,11.70
2017-09-11T03:58:19.306Z,11.80
2017-09-11T04:00:46.842Z,11.80
2017-09-11T04:03:14.338Z,11.70
2017-09-11T04:05:42.267Z,11.70
2017-09-11T04:08:09.787Z,11.70
2017-09-11T04:10:38.831Z,11.70
2017-09-11T04:13:06.483Z,11.70
2017-09-11T04:15:34.005Z,11.70
2017-09-11T04:18:01.903Z,11.70
2017-09-11T04:20:30.271Z,11.80
2017-09-11T04:22:57.915Z,11.70
2017-09-11T04:25:25.577Z,11.70
2017-09-11T04:27:53.086Z,11.70
2017-09-11T04:30:20.582Z,11.70
2017-09-11T04:35:17.758Z,11.70
2017-09-11T04:37:45.254Z,11.70
2017-09-11T04:40:13.575Z,11.70
2017-09-11T04:42:41.474Z,11.70
2017-09-11T04:45:08.972Z,11.70
2017-09-11T04:47:36.898Z,11.80
2017-09-11T04:50:04.400Z,11.80
2017-09-11T04:52:31.924Z,11.70
2017-09-11T04:54:59.540Z,11.70
2017-09-11T04:57:28.003Z,11.70
2017-09-11T04:59:56.086Z,11.70
2017-09-11T05:02:23.603Z,11.70
2017-09-11T05:04:51.107Z,11.70
2017-09-11T05:07:18.614Z,11.70
2017-09-11T05:12:15.376Z,11.80
2017-09-11T05:14:42.903Z,11.90
2017-09-11T05:17:11.926Z,11.80
2017-09-11T05:19:39.423Z,11.80
2017-09-11T05:22:06.943Z,11.80
2017-09-11T05:24:34.841Z,11.80
2017-09-11T05:27:02.363Z,11.90
2017-09-11T05:29:30.267Z,11.90
2017-09-11T05:31:58.202Z,11.90
2017-09-11T05:34:25.695Z,11.90
2017-09-11T05:36:53.217Z,11.90
2017-09-11T05:39:21.119Z,11.90
2017-09-11T05:41:48.684Z,11.90
2017-09-11T05:44:16.950Z,11.90
2017-09-11T05:46:44.644Z,12.00
2017-09-11T05:49:12.167Z,12.00
2017-09-11T05:51:39.699Z,11.90
2017-09-11T05:54:07.218Z,11.90
2017-09-11T05:56:35.144Z,11.90
2017-09-11T05:59:02.639Z,11.90
2017-09-11T06:01:30.171Z,11.90
2017-09-11T06:03:57.679Z,12.00
2017-09-11T06:06:25.216Z,12.00
2017-09-11T06:08:54.012Z,12.00
2017-09-11T06:11:21.535Z,12.10
2017-09-11T06:13:50.171Z,12.10
2017-09-11T06:16:17.699Z,12.10
2017-09-11T06:18:45.963Z,12.20
2017-09-11T06:21:13.496Z,12.30
2017-09-11T06:23:41.042Z,12.30
2017-09-11T06:26:09.327Z,12.30
2017-09-11T06:28:36.914Z,12.30
2017-09-11T06:31:04.443Z,12.40
2017-09-11T06:33:32.345Z,12.40
2017-09-11T06:35:59.870Z,12.40
2017-09-11T06:38:27.535Z,12.50
2017-09-11T06:40:55.535Z,12.70
2017-09-11T06:43:23.429Z,12.90
2017-09-11T06:45:51.741Z,12.90
2017-09-11T06:50:48.913Z,13.10
2017-09-11T06:53:16.768Z,13.20
2017-09-11T06:55:44.278Z,13.30
2017-09-11T06:58:11.790Z,13.50
2017-09-11T07:00:39.319Z,13.50
2017-09-11T07:03:07.351Z,13.50
2017-09-11T07:05:34.864Z,13.50
2017-09-11T07:08:02.399Z,13.50
2017-09-11T07:10:29.921Z,13.40
2017-09-11T07:18:01.707Z,13.60
2017-09-11T07:20:29.975Z,13.60
2017-09-11T07:22:57.884Z,13.70
2017-09-11T07:25:25.407Z,13.70
2017-09-11T07:27:54.434Z,13.70
2017-09-11T07:30:21.984Z,13.70
2017-09-11T07:32:50.664Z,13.80
2017-09-11T07:35:18.158Z,13.80
2017-09-11T07:37:45.688Z,13.90
2017-09-11T07:40:13.179Z,14.00
2017-09-11T07:42:40.700Z,14.10
2017-09-11T07:45:08.252Z,14.20
2017-09-11T07:47:35.771Z,14.30
2017-09-11T07:50:04.178Z,14.30
2017-09-11T07:52:33.206Z,14.30
2017-09-11T07:55:00.700Z,14.40
2017-09-11T07:57:28.639Z,14.30
2017-09-11T07:59:56.158Z,14.30
2017-09-11T08:02:23.715Z,14.30
2017-09-11T08:04:51.212Z,14.30
2017-09-11T08:07:19.895Z,13.00
2017-09-11T08:12:16.783Z,14.30
2017-09-11T08:14:45.059Z,14.40
2017-09-11T08:17:13.131Z,14.40
2017-09-11T08:19:41.411Z,14.30
2017-09-11T08:22:08.932Z,14.30
2017-09-11T08:24:37.618Z,14.40
2017-09-11T08:27:05.517Z,14.40
2017-09-11T08:29:33.828Z,14.50
2017-09-11T08:32:01.326Z,14.50
2017-09-11T08:34:28.862Z,14.50
2017-09-11T08:36:57.127Z,14.40
2017-09-11T08:39:25.555Z,14.30
2017-09-11T08:41:53.071Z,14.30
2017-09-11T08:44:21.346Z,14.30
2017-09-11T08:46:49.806Z,14.30
2017-09-11T08:51:46.686Z,14.40
2017-09-11T08:54:14.178Z,14.40
2017-09-11T08:56:41.700Z,14.50
2017-09-11T08:59:09.263Z,14.70
2017-09-11T09:01:36.778Z,14.90
2017-09-11T09:04:05.051Z,15.10
2017-09-11T09:06:32.967Z,15.30
2017-09-11T09:09:01.245Z,15.50
2017-09-11T09:11:29.209Z,15.60
2017-09-11T09:13:56.731Z,15.60
2017-09-11T09:16:25.786Z,15.60
2017-09-11T09:18:53.316Z,15.60
2017-09-11T09:21:20.855Z,15.80
2017-09-11T09:23:48.385Z,15.80
2017-09-11T09:26:15.898Z,15.80
2017-09-11T09:28:43.395Z,15.80
2017-09-11T09:31:11.679Z,15.90
2017-09-11T09:33:39.199Z,15.90
2017-09-11T09:36:07.134Z,16.00
2017-09-11T09:38:35.093Z,16.00
2017-09-11T09:41:02.762Z,15.90
2017-09-11T09:43:30.391Z,15.90
2017-09-11T09:45:57.905Z,16.00
2017-09-11T09:48:25.507Z,16.00
2017-09-11T09:50:53.038Z,16.00
2017-09-11T09:53:21.346Z,15.90
2017-09-11T09:55:48.869Z,15.90
2017-09-11T09:58:16.431Z,15.90
2017-09-11T10:00:43.955Z,15.90
2017-09-11T10:03:11.677Z,15.90
2017-09-11T10:05:39.749Z,15.80
2017-09-11T10:08:07.243Z,15.90
2017-09-11T10:10:34.853Z,15.90
2017-09-11T10:13:02.526Z,16.20
2017-09-11T10:15:30.463Z,16.60
2017-09-11T10:17:57.972Z,16.90
2017-09-11T10:20:25.519Z,17.10
2017-09-11T10:22:53.023Z,17.30
2017-09-11T10:25:21.683Z,17.40
2017-09-11T10:27:49.215Z,17.20
2017-09-11T10:30:17.507Z,17.20
2017-09-11T10:32:45.407Z,17.30
2017-09-11T10:35:13.080Z,17.30
2017-09-11T10:37:40.585Z,17.20
2017-09-11T10:40:08.119Z,17.20
2017-09-11T10:42:35.651Z,17.20
2017-09-11T10:45:03.917Z,17.30
2017-09-11T10:47:32.200Z,17.30
2017-09-11T10:49:59.723Z,17.40
2017-09-11T10:52:28.748Z,17.40
2017-09-11T10:54:56.379Z,17.30
2017-09-11T10:57:23.926Z,17.30
2017-09-11T10:59:51.830Z,17.30
2017-09-11T11:02:19.363Z,17.30
2017-09-11T11:04:46.911Z,17.30
2017-09-11T11:07:15.203Z,17.40
2017-09-11T11:09:43.479Z,17.40
2017-09-11T11:12:12.259Z,17.40
2017-09-11T11:14:40.536Z,17.40
2017-09-11T11:17:08.927Z,17.40
2017-09-11T11:19:36.430Z,17.40
2017-09-11T11:22:05.154Z,17.20
2017-09-11T11:24:33.628Z,17.20
2017-09-11T11:27:01.275Z,17.20
2017-09-11T11:29:28.951Z,17.20
2017-09-11T11:31:57.591Z,17.20
2017-09-11T11:36:54.043Z,17.30
2017-09-11T11:39:22.431Z,17.30
2017-09-11T11:44:19.187Z,17.30
2017-09-11T11:46:46.861Z,17.30
2017-09-11T11:49:14.393Z,17.30
2017-09-11T11:51:41.954Z,17.30
2017-09-11T11:54:11.044Z,17.30
2017-09-11T11:56:38.546Z,17.30
2017-09-11T11:59:07.313Z,17.40
2017-09-11T12:01:34.849Z,17.40
2017-09-11T12:06:31.374Z,17.50
2017-09-11T12:08:58.914Z,17.50
2017-09-11T12:11:27.176Z,17.60
2017-09-11T12:13:55.225Z,17.60
2017-09-11T12:16:23.487Z,17.60
2017-09-11T12:18:51.954Z,17.60
2017-09-11T12:21:19.461Z,17.50
2017-09-11T12:23:47.774Z,17.60
2017-09-11T12:26:15.279Z,17.50
2017-09-11T12:28:43.923Z,17.50
2017-09-11T12:31:11.459Z,17.50
2017-09-11T12:33:38.965Z,17.50
2017-09-11T12:36:06.495Z,17.60
2017-09-11T12:38:34.029Z,17.70
2017-09-11T12:41:01.959Z,17.80
2017-09-11T12:43:30.230Z,17.80
2017-09-11T12:45:58.517Z,17.30
2017-09-11T12:48:26.108Z,17.70
2017-09-11T12:50:54.890Z,17.60
2017-09-11T12:53:23.167Z,17.50
2017-09-11T12:55:51.456Z,17.50
2017-09-11T12:58:18.966Z,17.40
2017-09-11T13:00:47.261Z,17.40
2017-09-11T13:03:14.754Z,17.40
2017-09-11T13:05:42.252Z,17.50
2017-09-11T13:08:09.748Z,17.50
2017-09-11T13:10:37.239Z,17.70
2017-09-11T13:13:05.154Z,17.70
2017-09-11T13:18:01.667Z,17.80
2017-09-11T13:22:58.223Z,17.80
2017-09-11T13:25:25.826Z,17.80
2017-09-11T13:27:53.350Z,17.70
2017-09-11T13:30:21.368Z,17.60
2017-09-11T13:32:49.688Z,17.50
2017-09-11T13:35:17.207Z,17.50
2017-09-11T13:37:45.508Z,17.60
2017-09-11T13:42:41.873Z,17.70
2017-09-11T13:45:10.155Z,17.70
2017-09-11T13:47:37.667Z,17.80
2017-09-11T13:50:37.315Z,17.90
2017-09-11T13:53:05.361Z,17.90
2017-09-11T13:55:33.832Z,17.90
2017-09-11T13:58:01.491Z,17.90
2017-09-11T14:00:29.158Z,17.90
2017-09-11T14:02:56.836Z,17.90
2017-09-11T14:05:24.343Z,17.90
2017-09-11T14:07:52.599Z,18.00
2017-09-11T14:10:20.494Z,18.00
2017-09-11T14:12:48.007Z,17.90
2017-09-11T14:15:17.154Z,17.70
2017-09-11T14:17:44.812Z,17.80
2017-09-11T14:20:13.087Z,17.70
2017-09-11T14:22:41.359Z,17.70
2017-09-11T14:25:08.892Z,17.60
2017-09-11T14:27:37.159Z,17.60
2017-09-11T14:30:05.555Z,17.60
2017-09-11T14:32:33.057Z,17.70
2017-09-11T14:35:00.564Z,17.60
2017-09-11T14:37:28.455Z,17.50
2017-09-11T14:39:55.955Z,17.60
2017-09-11T14:42:23.643Z,17.60
2017-09-11T14:44:51.923Z,17.70
2017-09-11T14:47:19.844Z,17.80
2017-09-11T14:49:48.118Z,17.90
2017-09-11T14:52:16.410Z,17.90
2017-09-11T14:54:44.394Z,17.90
2017-09-11T14:57:12.464Z,17.90
2017-09-11T14:59:40.727Z,17.80
2017-09-11T15:04:37.120Z,18.00
2017-09-11T15:07:04.738Z,17.90
2017-09-11T15:09:33.018Z,17.90
2017-09-11T15:12:00.619Z,17.90
2017-09-11T15:14:29.638Z,17.90
2017-09-11T15:16:57.922Z,17.90
2017-09-11T15:19:25.823Z,18.00
2017-09-11T15:21:53.315Z,17.90
2017-09-11T15:24:21.015Z,17.90
2017-09-11T15:26:48.708Z,17.90
2017-09-11T15:29:17.008Z,17.90
2017-09-11T15:31:44.919Z,17.70
2017-09-11T15:34:12.443Z,17.70
2017-09-11T15:36:40.147Z,17.60
2017-09-11T15:39:07.690Z,17.50
2017-09-11T15:41:35.247Z,17.50
2017-09-11T15:44:02.768Z,17.40
2017-09-11T15:46:31.431Z,17.40
2017-09-11T15:48:58.951Z,17.30
2017-09-11T15:51:27.217Z,17.10
2017-09-11T15:53:56.226Z,17.10
2017-09-11T15:56:24.502Z,17.20
2017-09-11T15:58:51.999Z,17.10
2017-09-11T16:01:20.655Z,17.10
2017-09-11T16:03:48.921Z,17.10
2017-09-11T16:06:17.193Z,17.00
2017-09-11T16:08:44.699Z,17.00
2017-09-11T16:11:12.592Z,16.90
2017-09-11T16:13:40.130Z,17.00
2017-09-11T16:16:09.170Z,16.90
2017-09-11T16:18:36.678Z,16.90
2017-09-11T16:21:04.327Z,16.80
2017-09-11T16:23:31.835Z,16.70
2017-09-11T16:25:59.344Z,16.70
2017-09-11T16:28:26.847Z,16.70
2017-09-11T16:30:54.747Z,16.80
2017-09-11T16:33:22.411Z,16.80
2017-09-11T16:35:50.478Z,16.70
2017-09-11T16:38:17.980Z,16.70
2017-09-11T16:40:45.488Z,16.70
2017-09-11T16:43:12.990Z,16.70
2017-09-11T16:45:40.503Z,16.70
2017-09-11T16:48:08.178Z,16.70
2017-09-11T16:50:35.667Z,16.60
2017-09-11T16:53:03.267Z,16.60
2017-09-11T16:55:31.156Z,16.50
2017-09-11T16:57:58.790Z,16.50
2017-09-11T17:00:26.555Z,16.40
2017-09-11T17:02:54.070Z,16.30
2017-09-11T17:05:21.954Z,16.30
2017-09-11T17:07:49.644Z,16.30
2017-09-11T17:10:17.137Z,16.20
2017-09-11T17:12:45.404Z,16.20
2017-09-11T17:15:13.011Z,16.10
2017-09-11T17:17:42.102Z,16.10
2017-09-11T17:20:09.771Z,16.10
2017-09-11T17:22:37.662Z,16.00
2017-09-11T17:25:06.122Z,16.10
2017-09-11T17:27:33.626Z,16.00
2017-09-11T17:30:02.660Z,15.90
2017-09-11T17:32:30.318Z,15.90
2017-09-11T17:34:57.846Z,15.80
2017-09-11T17:37:26.848Z,15.80
2017-09-11T17:39:54.347Z,15.80
2017-09-11T17:42:22.713Z,15.80
2017-09-11T17:44:50.234Z,15.80
2017-09-11T17:47:18.495Z,15.80
2017-09-11T17:49:46.023Z,15.70
2017-09-11T17:52:14.447Z,15.70
2017-09-11T17:54:41.951Z,15.70
2017-09-11T17:57:09.570Z,15.60
2017-09-11T17:59:37.234Z,15.60
2017-09-11T18:02:04.732Z,15.50
2017-09-11T18:04:32.331Z,15.50
2017-09-11T18:06:59.852Z,15.40
2017-09-11T18:09:27.401Z,15.50
2017-09-11T18:11:54.922Z,15.40
2017-09-11T18:14:23.200Z,15.50
2017-09-11T18:16:50.838Z,15.50
2017-09-11T18:19:18.331Z,15.50
2017-09-11T18:21:45.831Z,15.50
2017-09-11T18:24:13.338Z,15.50
2017-09-11T18:26:40.839Z,15.50
2017-09-11T18:29:08.442Z,15.50
2017-09-11T18:31:36.327Z,15.50
2017-09-11T18:34:03.827Z,15.50
2017-09-11T18:36:31.478Z,15.60
2017-09-11T18:38:59.136Z,15.50
2017-09-11T18:41:26.643Z,15.50
2017-09-11T18:43:54.143Z,15.50
2017-09-11T18:46:21.719Z,15.40
2017-09-11T18:48:49.224Z,15.50
2017-09-11T18:51:18.239Z,15.50
2017-09-11T18:53:46.147Z,15.50
2017-09-11T18:56:13.639Z,15.50
2017-09-11T18:58:41.528Z,15.50
2017-09-11T19:01:09.091Z,15.40
2017-09-11T19:03:36.579Z,15.40
2017-09-11T19:06:04.207Z,15.40
2017-09-11T19:08:31.811Z,15.40
2017-09-11T19:10:59.331Z,15.40
2017-09-11T19:13:26.821Z,15.40
2017-09-11T19:15:54.351Z,15.30
2017-09-11T19:18:21.847Z,15.30
2017-09-11T19:20:49.367Z,15.40
2017-09-11T19:23:16.857Z,15.40
2017-09-11T19:25:44.357Z,15.40
2017-09-11T19:28:11.858Z,15.40
2017-09-11T19:30:39.352Z,15.40
2017-09-11T19:33:07.627Z,15.30
2017-09-11T19:35:35.135Z,15.40
2017-09-11T19:38:02.747Z,15.40
2017-09-11T19:40:30.252Z,15.40
2017-09-11T19:42:57.752Z,15.40
2017-09-11T19:45:26.007Z,15.40
2017-09-11T19:47:54.263Z,15.50
2017-09-11T19:52:50.899Z,15.50
2017-09-11T19:55:19.167Z,15.50
2017-09-11T19:57:46.892Z,15.50
2017-09-11T20:00:14.390Z,15.40
2017-09-11T20:02:43.416Z,15.40
2017-09-11T20:05:10.907Z,15.50
2017-09-11T20:07:38.531Z,15.40
2017-09-11T20:10:06.155Z,15.40
2017-09-11T20:12:33.659Z,15.40
2017-09-11T20:15:01.937Z,15.40
2017-09-11T20:17:29.427Z,15.40
2017-09-11T20:19:56.923Z,15.30
2017-09-11T20:22:25.197Z,15.30
2017-09-11T20:24:52.692Z,15.20
2017-09-11T20:27:20.231Z,15.10
2017-09-11T20:29:47.888Z,15.10
2017-09-11T20:32:15.412Z,15.10
2017-09-11T20:34:43.331Z,15.10
2017-09-11T20:37:11.600Z,15.10
2017-09-11T20:39:39.132Z,15.00
2017-09-11T20:42:07.406Z,15.00
2017-09-11T20:44:35.068Z,15.00
2017-09-11T20:47:03.340Z,15.00
2017-09-11T20:49:30.853Z,15.00
2017-09-11T20:51:59.908Z,15.00
2017-09-11T20:54:27.419Z,15.00
2017-09-11T20:56:56.215Z,15.00
2017-09-11T21:01:52.555Z,15.00
2017-09-11T21:04:20.056Z,15.00
2017-09-11T21:06:47.663Z,15.00
2017-09-11T21:09:15.168Z,15.00
2017-09-11T21:11:42.679Z,15.00
2017-09-11T21:14:10.303Z,15.10
2017-09-11T21:16:37.810Z,15.00
2017-09-11T21:19:05.311Z,15.00
2017-09-11T21:21:33.007Z,14.90
2017-09-11T21:24:00.516Z,14.90
2017-09-11T21:26:28.386Z,14.90
2017-09-11T21:28:56.653Z,14.90
2017-09-11T21:31:24.164Z,14.90
2017-09-11T21:33:51.721Z,14.90
2017-09-11T21:36:19.242Z,14.90
2017-09-11T21:38:47.228Z,14.80
2017-09-11T21:41:14.740Z,14.70
2017-09-11T21:43:42.342Z,14.70
2017-09-11T21:46:09.963Z,14.70
2017-09-11T21:48:37.467Z,14.70
2017-09-11T21:51:04.962Z,14.70
2017-09-11T21:53:32.455Z,14.60
2017-09-11T21:56:01.454Z,14.50
2017-09-11T21:58:29.138Z,14.60
2017-09-11T22:00:56.648Z,14.50
2017-09-11T22:03:24.925Z,14.50
2017-09-11T22:05:53.207Z,14.50
2017-09-11T22:08:21.223Z,14.60
2017-09-11T22:10:49.114Z,14.70
2017-09-11T22:13:16.703Z,14.70
2017-09-11T22:15:44.605Z,14.70
2017-09-11T22:18:12.511Z,14.60
2017-09-11T22:20:40.787Z,14.60
2017-09-11T22:23:08.802Z,14.60
2017-09-11T22:25:37.266Z,14.70
2017-09-11T22:28:05.172Z,14.70
2017-09-11T22:30:33.808Z,14.50
2017-09-11T22:33:01.452Z,14.60
2017-09-11T22:35:29.107Z,14.50
2017-09-11T22:37:57.383Z,14.50
2017-09-11T22:40:25.054Z,14.50
2017-09-11T22:42:52.708Z,14.50
2017-09-11T22:45:20.208Z,14.50
2017-09-11T22:47:48.110Z,14.50
2017-09-11T22:50:16.375Z,14.50
2017-09-11T22:52:44.763Z,14.50
2017-09-11T22:55:12.255Z,14.40
2017-09-11T22:57:40.153Z,14.40
2017-09-11T23:00:08.426Z,14.50
2017-09-11T23:02:36.850Z,14.50
2017-09-11T23:05:04.499Z,14.40
2017-09-11T23:07:32.043Z,14.40
2017-09-11T23:10:00.031Z,14.40
2017-09-11T23:12:27.559Z,14.40
2017-09-11T23:14:55.449Z,14.50
2017-09-11T23:17:23.742Z,14.50
2017-09-11T23:19:51.639Z,14.50
2017-09-11T23:22:19.335Z,14.60
2017-09-11T23:24:46.839Z,14.50
2017-09-11T23:27:15.114Z,14.50
2017-09-11T23:29:43.007Z,14.50
2017-09-11T23:32:10.934Z,14.60
2017-09-11T23:37:08.156Z,14.60
2017-09-11T23:39:35.807Z,14.60
2017-09-11T23:42:03.304Z,14.40
2017-09-11T23:44:30.799Z,14.40
2017-09-11T23:46:59.103Z,14.30
2017-09-11T23:49:26.660Z,14.40
2017-09-11T23:51:54.322Z,14.30
2017-09-11T23:54:21.819Z,14.30
2017-09-11T23:56:49.714Z,14.20
2017-09-11T23:59:17.983Z,14.20
